TimeCST,TemperatureF,Dew PointF,Humidity,Sea Level PressureIn,VisibilityMPH,Wind Direction,Wind SpeedMPH,Gust SpeedMPH,PrecipitationIn,Events,Conditions,WindDirDegrees,DateUTC
12:13 AM,-7.4,-11.6,82,30.12,10.0,Calm,Calm,-,N/A,,Clear,0,2012-12-30 06:13:00
12:53 AM,-7.6,-11.6,83,30.12,10.0,Calm,Calm,-,N/A,,Clear,0,2012-12-30 06:53:00
1:13 AM,-7.1,-10.7,84,30.13,7.0,Calm,Calm,-,N/A,,Clear,0,2012-12-30 07:13:00
1:34 AM,-6.9,-10.5,84,30.13,7.0,Calm,Calm,-,N/A,,Clear,0,2012-12-30 07:34:00
1:53 AM,-7.8,-11.7,83,30.13,7.0,Calm,Calm,-,N/A,,Clear,0,2012-12-30 07:53:00
2:13 AM,-7.1,-10.8,84,30.13,7.0,Calm,Calm,-,N/A,,Clear,0,2012-12-30 08:13:00
2:33 AM,-7.6,-11.4,84,30.13,10.0,Calm,Calm,-,N/A,,Clear,0,2012-12-30 08:33:00
2:53 AM,-7.1,-11.0,83,30.13,7.0,Calm,Calm,-,N/A,,Clear,0,2012-12-30 08:53:00
3:14 AM,-6.0,-9.6,84,30.13,7.0,Calm,Calm,-,N/A,,Clear,0,2012-12-30 09:14:00
3:33 AM,-6.5,-10.3,84,30.13,10.0,Calm,Calm,-,N/A,,Clear,0,2012-12-30 09:33:00
3:53 AM,-5.4,-9.2,84,30.12,7.0,Calm,Calm,-,N/A,,Clear,0,2012-12-30 09:53:00
4:13 AM,-4.9,-8.5,84,30.12,7.0,Calm,Calm,-,N/A,,Clear,0,2012-12-30 10:13:00
4:33 AM,-6.7,-10.5,84,30.12,10.0,Calm,Calm,-,N/A,,Clear,0,2012-12-30 10:33:00
4:53 AM,-5.3,-9.2,83,30.12,10.0,Calm,Calm,-,N/A,,Clear,0,2012-12-30 10:53:00
5:13 AM,-1.7,-5.1,85,30.11,7.0,Calm,Calm,-,N/A,,Clear,0,2012-12-30 11:13:00
5:33 AM,-1.3,-4.5,86,30.09,7.0,SE,3.5,-,N/A,,Clear,130,2012-12-30 11:33:00
5:53 AM,-1.3,-4.7,85,30.10,7.0,Calm,Calm,-,N/A,,Clear,0,2012-12-30 11:53:00
6:13 AM,-1.1,-4.2,87,30.09,7.0,Calm,Calm,-,N/A,,Clear,0,2012-12-30 12:13:00
6:33 AM,-1.5,-4.9,85,30.09,7.0,Calm,Calm,-,N/A,,Clear,0,2012-12-30 12:33:00
6:53 AM,-0.9,-4.0,87,30.09,7.0,Calm,Calm,-,N/A,,Clear,0,2012-12-30 12:53:00
7:13 AM,-0.2,-3.3,87,30.09,7.0,Calm,Calm,-,N/A,,Clear,0,2012-12-30 13:13:00
7:33 AM,-0.4,-3.8,85,30.09,7.0,Calm,Calm,-,N/A,,Clear,0,2012-12-30 13:33:00
7:53 AM,-0.6,-4.0,85,30.08,7.0,Calm,Calm,-,N/A,,Clear,0,2012-12-30 13:53:00
8:13 AM,-1.1,-4.4,86,30.08,5.0,Calm,Calm,-,N/A,,Clear,0,2012-12-30 14:13:00
8:33 AM,0.9,-2.4,86,30.07,7.0,Calm,Calm,-,N/A,,Clear,0,2012-12-30 14:33:00
8:53 AM,2.1,-0.9,87,30.07,7.0,Calm,Calm,-,N/A,,Clear,0,2012-12-30 14:53:00
9:13 AM,3.6,0.5,87,30.07,7.0,SSE,4.6,-,N/A,,Clear,150,2012-12-30 15:13:00
9:33 AM,3.7,0.5,86,30.07,7.0,SSE,3.5,-,N/A,,Clear,150,2012-12-30 15:33:00
9:53 AM,4.6,1.9,89,30.06,7.0,Calm,Calm,-,N/A,,Clear,0,2012-12-30 15:53:00
10:13 AM,6.3,3.4,88,30.06,7.0,SSE,6.9,-,N/A,,Clear,160,2012-12-30 16:13:00
10:33 AM,8.1,5.5,89,30.04,7.0,SSE,8.1,-,N/A,,Clear,150,2012-12-30 16:33:00
10:53 AM,8.6,5.9,89,30.04,7.0,SE,5.8,-,N/A,,Clear,140,2012-12-30 16:53:00
11:13 AM,9.0,6.3,89,30.01,7.0,SE,6.9,-,N/A,,Clear,140,2012-12-30 17:13:00
11:34 AM,10.0,7.5,90,30.01,10.0,SSE,4.6,-,N/A,,Clear,150,2012-12-30 17:34:00
11:53 AM,11.3,8.6,89,29.99,10.0,SSE,5.8,-,N/A,,Clear,150,2012-12-30 17:53:00
12:13 PM,12.0,9.3,89,29.97,10.0,SSE,5.8,-,N/A,,Clear,150,2012-12-30 18:13:00
12:33 PM,12.9,9.9,88,29.96,10.0,SSE,6.9,-,N/A,,Clear,150,2012-12-30 18:33:00
12:53 PM,13.5,9.5,84,29.93,10.0,SE,8.1,-,N/A,,Clear,140,2012-12-30 18:53:00
1:13 PM,13.8,9.5,83,29.92,10.0,SE,6.9,-,N/A,,Clear,140,2012-12-30 19:13:00
1:33 PM,15.8,10.8,80,29.90,10.0,ESE,4.6,-,N/A,,Clear,120,2012-12-30 19:33:00
1:53 PM,16.7,10.9,78,29.89,10.0,SE,8.1,-,N/A,,Clear,130,2012-12-30 19:53:00
2:13 PM,16.7,10.9,78,29.88,10.0,SE,5.8,-,N/A,,Clear,140,2012-12-30 20:13:00
2:33 PM,17.2,11.3,78,29.86,10.0,ESE,4.6,-,N/A,,Clear,120,2012-12-30 20:33:00
2:53 PM,18.0,11.3,75,29.87,10.0,ESE,3.5,-,N/A,,Clear,120,2012-12-30 20:53:00
3:13 PM,17.4,11.1,76,29.88,10.0,SE,3.5,-,N/A,,Clear,140,2012-12-30 21:13:00
3:33 PM,16.2,10.2,77,29.87,10.0,ENE,3.5,-,N/A,,Clear,70,2012-12-30 21:33:00
3:53 PM,14.7,9.0,78,29.87,10.0,ENE,4.6,-,N/A,,Clear,70,2012-12-30 21:53:00
4:13 PM,14.0,8.8,80,29.87,10.0,Calm,Calm,-,N/A,,Clear,0,2012-12-30 22:13:00
4:39 PM,12.2,7.5,82,29.86,10.0,ESE,3.5,-,N/A,,Clear,120,2012-12-30 22:39:00
4:58 PM,12.7,8.4,83,29.86,10.0,Calm,Calm,-,N/A,,Clear,0,2012-12-30 22:58:00
5:14 PM,11.3,7.3,84,29.87,10.0,Calm,Calm,-,N/A,,Scattered Clouds,0,2012-12-30 23:14:00
5:33 PM,9.5,6.1,86,29.86,10.0,Calm,Calm,-,N/A,,Mostly Cloudy,0,2012-12-30 23:33:00
5:53 PM,8.6,5.5,87,29.88,10.0,Calm,Calm,-,N/A,,Scattered Clouds,0,2012-12-30 23:53:00
6:14 PM,5.4,2.5,88,29.88,7.0,Calm,Calm,-,N/A,,Clear,0,2012-12-31 00:14:00
6:33 PM,1.9,-0.6,89,29.88,7.0,Calm,Calm,-,N/A,,Clear,0,2012-12-31 00:33:00
6:53 PM,1.9,-0.8,88,29.88,7.0,Calm,Calm,-,N/A,,Clear,0,2012-12-31 00:53:00
7:14 PM,1.2,-2.0,86,29.88,10.0,Calm,Calm,-,N/A,,Clear,0,2012-12-31 01:14:00
7:33 PM,-2.4,-4.9,89,29.89,10.0,WSW,3.5,-,N/A,,Clear,250,2012-12-31 01:33:00
7:53 PM,-0.0,-2.4,90,29.90,7.0,West,4.6,-,N/A,,Clear,270,2012-12-31 01:53:00
8:13 PM,1.6,-0.8,90,29.90,7.0,West,4.6,-,N/A,,Clear,260,2012-12-31 02:13:00
8:33 PM,0.9,-1.8,88,29.91,7.0,West,6.9,-,N/A,,Clear,270,2012-12-31 02:33:00
8:53 PM,4.6,2.3,90,29.91,7.0,West,5.8,-,N/A,,Clear,280,2012-12-31 02:53:00
9:13 PM,5.5,3.0,89,29.92,10.0,WNW,6.9,-,N/A,,Clear,290,2012-12-31 03:13:00
9:53 PM,12.4,10.0,90,29.94,10.0,WNW,9.2,-,N/A,,Mostly Cloudy,300,2012-12-31 03:53:00
10:13 PM,12.2,9.5,89,29.95,10.0,WNW,9.2,-,N/A,,Scattered Clouds,300,2012-12-31 04:13:00
10:33 PM,13.1,10.6,90,29.95,10.0,NW,10.4,21.9,N/A,,Scattered Clouds,310,2012-12-31 04:33:00
10:53 PM,13.8,11.1,89,29.97,10.0,WNW,8.1,-,N/A,,Mostly Cloudy,300,2012-12-31 04:53:00
11:13 PM,14.0,11.1,88,29.98,10.0,WNW,6.9,-,N/A,,Scattered Clouds,300,2012-12-31 05:13:00
11:33 PM,14.0,11.1,88,29.99,10.0,WNW,10.4,-,N/A,,Clear,300,2012-12-31 05:33:00
11:53 PM,14.2,10.2,84,30.00,10.0,WNW,12.7,18.4,N/A,,Clear,300,2012-12-31 05:53:00